Pagrindinis puslapis
METAR-TAF:

METAR-TAF

Oro uostai :

Florencija, Italija

platuma: 43-48N, ilguma: 011-12E, Aukštis: 40 m

Dabartinis oras

Ataskaita buvo paskelbta 29 minutes, ne 01:20 UTC
Vėjas 1 kt nuo kintamojo kryptimis
Temperatūra 12°C
Drėgmė 71%
Slėgis 1018 hPa
Matomumas 10 km arba daugiau
Išsisklaidę debesys ne aukštis 8000 ft

METAR: LIRQ 220120Z VRB01KT 9999 SCT080 12/07 Q1018

Laikas: 03:49 (01:49 UTC)

Prognozė

Ataskaita buvo paskelbta 2 valandos ir 49 minutes, ne 23:00 UTC
Prognozė galioja nuo 22 metu 00 UTC su 22 metu 24 UTC
Vėjas 5 kt nuo kintamojo kryptimis
Matomumas 10 km arba daugiau
Mažai debesys ne aukštis 4000 ft
Laikinai
nuo 22 metu 12 UTC su 22 metu 16 UTC
Matomumas: 4000 m
lietus

TAF: LIRQ 212300Z 2200/2224 VRB05KT 9999 FEW040 TEMPO 2212/2216 4000 SHRA

Orai ataskaitas ir orų prognozės (METAR, TAF).

turimą stotys yra geltonos ir raudonos taškus žemėlapyje.

Perkelti pele per norėdami pamatyti stoties vardą.

Tada spustelėkite, norėdami matyti oro stebėjimo ir prognozės.

Norėdami pakeisti žemėlapį: spustelėkite ant žalios mygtukų su juodo kryžiaus žemyn,; žalią mygtuką su brūkšneliu, jei norite nutolinti; arba žalių rodyklių gretimoms žemėlapius.


METAR-TAF: